Time;durP1;ratioP1;P1;durP2;ratioP2;P2;SDS_P1;SDS_P2;PMS_P1;PMS_P2;Temp;Humidity;BMP_temperature;BMP_pressure;BME280_temperature;BME280_humidity;BME280_pressure;Samples;Min_cycle;Max_cycle;Signal;HPM_P1;HPM_P2
2023/01/15 00:01:17;;;;;;;;;;;;;;;7.32;61.69;99887.50;4469652;32;34822;-65
2023/01/15 00:03:44;;;;;;;;;;;;;;;7.36;61.33;99881.06;4479723;32;34172;-65
2023/01/15 00:06:12;;;;;;;;;;;;;;;7.64;60.59;99877.59;4483613;32;34617;-65
2023/01/15 00:08:39;;;;;;;;;;;;;;;7.81;60.24;99876.59;4469047;32;34724;-65
2023/01/15 00:11:06;;;;;;;;;;;;;;;7.65;59.54;99872.19;4474878;32;35342;-66
2023/01/15 00:13:33;;;;;;;;;;;;;;;7.13;62.33;99872.63;4474357;32;34500;-65
2023/01/15 00:16:01;;;;;;;;;;;;;;;7.05;61.74;99866.88;4482107;32;34257;-65
2023/01/15 00:18:29;;;;;;;;;;;;;;;6.93;63.00;99873.81;4470985;31;33472;-66
2023/01/15 00:21:00;;;;;;;;;;;;;;;6.91;62.84;99878.34;4479563;32;34085;-66
2023/01/15 00:29:03;;;;;;;;;;;;;;;6.63;61.71;99867.56;4476212;32;33524;-64
2023/01/15 00:31:31;;;;;;;;;;;;;;;6.96;62.02;99862.94;4480117;32;33796;-65
2023/01/15 00:33:58;;;;;;;;;;;;;;;6.53;63.79;99861.91;4476528;32;32981;-67
2023/01/15 00:36:25;;;;;;;;;;;;;;;7.24;61.44;99862.19;4474237;32;33866;-62
2023/01/15 00:38:53;;;;;;;;;;;;;;;6.81;61.87;99858.53;4469229;32;33857;-63
2023/01/15 00:41:20;;;;;;;;;;;;;;;7.30;60.51;99854.81;4469551;32;33879;-63
2023/01/15 00:43:48;;;;;;;;;;;;;;;7.17;60.30;99847.53;4474993;32;34376;-63
2023/01/15 00:46:15;;;;;;;;;;;;;;;7.18;60.78;99846.59;4482202;32;34436;-63
2023/01/15 00:48:43;;;;;;;;;;;;;;;6.83;62.15;99850.44;4471477;32;34615;-64
2023/01/15 00:51:10;;;;;;;;;;;;;;;6.20;63.68;99856.66;4470079;32;35275;-65
2023/01/15 00:53:38;;;;;;;;;;;;;;;6.44;63.62;99855.28;4468946;31;35159;-62
2023/01/15 00:56:05;;;;;;;;;;;;;;;6.70;62.07;99851.16;4471241;32;33331;-65
2023/01/15 00:58:32;;;;;;;;;;;;;;;7.21;60.49;99856.19;4472204;32;33571;-66
2023/01/15 01:01:00;;;;;;;;;;;;;;;7.42;59.13;99854.09;4471101;32;34225;-63
2023/01/15 01:03:27;;;;;;;;;;;;;;;7.47;58.83;99850.16;4472582;32;35867;-67
2023/01/15 01:05:58;;;;;;;;;;;;;;;7.32;59.14;99853.78;4467663;32;32315;-63
2023/01/15 01:08:26;;;;;;;;;;;;;;;6.36;61.41;99846.03;4473526;32;31677;-65
2023/01/15 01:11:01;;;;;;;;;;;;;;;6.43;62.10;99842.09;4480039;32;35217;-63
2023/01/15 01:13:28;;;;;;;;;;;;;;;6.74;60.95;99841.19;4480111;32;33054;-67
2023/01/15 01:15:55;;;;;;;;;;;;;;;6.86;59.80;99839.63;4468941;32;32738;-61
2023/01/15 01:18:24;;;;;;;;;;;;;;;5.75;63.29;99851.06;4479237;32;32875;-64
2023/01/15 01:20:51;;;;;;;;;;;;;;;6.59;61.83;99847.41;4450753;32;799548;-63
2023/01/15 01:23:18;;;;;;;;;;;;;;;5.66;64.28;99846.22;4469155;32;34164;-66
2023/01/15 01:25:46;;;;;;;;;;;;;;;6.17;62.21;99840.87;4482275;32;34171;-68
2023/01/15 01:28:14;;;;;;;;;;;;;;;6.33;62.27;99841.75;4470388;31;33404;-66
2023/01/15 01:30:41;;;;;;;;;;;;;;;5.63;62.90;99841.09;4468724;32;34152;-64
2023/01/15 01:33:08;;;;;;;;;;;;;;;5.37;64.48;99845.97;4472328;32;35256;-66
2023/01/15 01:35:36;;;;;;;;;;;;;;;6.05;63.60;99832.63;4481246;32;34243;-64
2023/01/15 01:38:03;;;;;;;;;;;;;;;6.71;60.13;99836.06;4475608;32;33363;-63
2023/01/15 01:40:30;;;;;;;;;;;;;;;6.42;61.96;99824.41;4482802;32;33622;-63
2023/01/15 01:42:58;;;;;;;;;;;;;;;5.95;62.83;99828.75;4474352;31;35390;-63
2023/01/15 01:45:27;;;;;;;;;;;;;;;5.99;63.10;99824.13;4481833;32;33994;-65
2023/01/15 01:47:55;;;;;;;;;;;;;;;6.01;62.78;99825.78;4472799;32;34216;-66
2023/01/15 01:50:23;;;;;;;;;;;;;;;6.51;61.17;99826.53;4472979;32;34004;-63
2023/01/15 01:52:57;;;;;;;;;;;;;;;5.03;66.36;99808.81;4458900;32;32667;-63
2023/01/15 01:55:24;;;;;;;;;;;;;;;4.99;66.12;99807.25;4479510;32;34354;-63
2023/01/15 01:57:53;;;;;;;;;;;;;;;5.21;66.92;99802.56;4469840;31;33250;-65
2023/01/15 02:00:21;;;;;;;;;;;;;;;5.80;63.81;99795.87;4478282;31;33849;-63
2023/01/15 02:02:48;;;;;;;;;;;;;;;5.27;64.90;99788.13;4476728;32;33017;-63
2023/01/15 02:05:21;;;;;;;;;;;;;;;4.04;68.91;99785.41;4480019;32;33742;-64
2023/01/15 02:07:48;;;;;;;;;;;;;;;5.10;66.45;99784.56;4460420;32;33356;-65
2023/01/15 02:10:16;;;;;;;;;;;;;;;4.39;68.87;99773.97;4478638;31;33435;-64
2023/01/15 02:12:45;;;;;;;;;;;;;;;4.21;69.80;99766.94;4469411;32;34322;-66
2023/01/15 02:15:14;;;;;;;;;;;;;;;3.47;72.92;99758.94;4479485;31;34053;-63
2023/01/15 02:17:54;;;;;;;;;;;;;;;4.83;67.43;99765.59;4470690;31;33525;-63
2023/01/15 02:20:27;;;;;;;;;;;;;;;4.08;70.27;99758.72;4453638;32;33442;-64
2023/01/15 02:23:06;;;;;;;;;;;;;;;4.59;68.11;99761.53;4459501;32;34196;-63
2023/01/15 02:25:34;;;;;;;;;;;;;;;5.19;65.57;99761.12;4459374;32;33140;-63
2023/01/15 02:28:07;;;;;;;;;;;;;;;4.60;66.09;99757.97;4467485;31;33276;-62
2023/01/15 02:30:38;;;;;;;;;;;;;;;4.02;69.75;99759.00;4460688;32;34769;-64
2023/01/15 02:33:07;;;;;;;;;;;;;;;4.71;68.26;99760.91;4458094;32;34082;-62
2023/01/15 02:35:41;;;;;;;;;;;;;;;4.82;67.46;99757.75;4458700;32;34101;-62
2023/01/15 02:38:10;;;;;;;;;;;;;;;4.36;69.17;99747.63;4471349;32;33895;-65
2023/01/15 02:40:37;;;;;;;;;;;;;;;5.27;65.90;99751.84;4479544;32;33942;-63
2023/01/15 02:43:05;;;;;;;;;;;;;;;5.81;64.22;99757.78;4457803;32;34280;-62
2023/01/15 02:45:32;;;;;;;;;;;;;;;5.17;65.44;99758.56;4458530;32;34220;-65
2023/01/15 02:48:03;;;;;;;;;;;;;;;5.55;65.48;99731.75;4469745;32;32970;-66
2023/01/15 02:50:35;;;;;;;;;;;;;;;5.31;65.78;99728.66;4450559;32;33947;-66
2023/01/15 02:53:04;;;;;;;;;;;;;;;5.83;64.28;99731.97;4451804;32;35118;-64
2023/01/15 02:55:36;;;;;;;;;;;;;;;5.21;65.29;99735.38;4464446;32;35172;-63
2023/01/15 02:58:06;;;;;;;;;;;;;;;5.92;63.17;99735.06;4470154;32;33324;-61
2023/01/15 03:00:35;;;;;;;;;;;;;;;4.51;68.46;99730.09;4476972;32;36560;-63
2023/01/15 03:03:06;;;;;;;;;;;;;;;4.22;70.17;99730.69;4465454;32;34102;-62
2023/01/15 03:05:46;;;;;;;;;;;;;;;5.14;66.99;99733.06;4476062;32;34467;-64
2023/01/15 03:08:13;;;;;;;;;;;;;;;4.16;70.61;99721.25;4455575;32;33611;-65
2023/01/15 03:11:08;;;;;;;;;;;;;;;4.55;69.00;99718.41;4465980;32;33976;-67
2023/01/15 03:13:41;;;;;;;;;;;;;;;5.54;65.15;99712.31;4466355;32;34176;-65
2023/01/15 03:19:01;;;;;;;;;;;;;;;4.78;67.24;99716.38;4455367;32;34325;-67
2023/01/15 03:21:30;;;;;;;;;;;;;;;5.55;64.85;99716.72;4452989;32;33099;-65
2023/01/15 03:23:57;;;;;;;;;;;;;;;6.29;61.99;99712.59;4475861;31;33161;-67
2023/01/15 03:26:25;;;;;;;;;;;;;;;5.03;66.48;99718.63;4472802;32;34318;-65
2023/01/15 03:28:53;;;;;;;;;;;;;;;5.52;64.06;99705.38;4469011;32;34325;-65
2023/01/15 03:31:21;;;;;;;;;;;;;;;4.57;67.70;99711.25;4466399;32;34810;-65
2023/01/15 03:33:49;;;;;;;;;;;;;;;5.68;64.04;99703.63;4467381;32;34872;-64
2023/01/15 03:36:17;;;;;;;;;;;;;;;5.38;64.77;99709.63;4467678;32;34115;-66
2023/01/15 03:38:46;;;;;;;;;;;;;;;5.74;63.54;99707.72;4475250;31;33282;-65
2023/01/15 03:41:16;;;;;;;;;;;;;;;5.99;62.97;99701.91;4467934;32;35319;-65
2023/01/15 03:43:59;;;;;;;;;;;;;;;5.83;63.28;99694.78;4468933;32;34311;-68
2023/01/15 03:46:27;;;;;;;;;;;;;;;5.64;64.50;99693.25;4473020;31;34331;-68
2023/01/15 03:48:57;;;;;;;;;;;;;;;3.79;70.38;99701.84;4463886;32;34857;-68
2023/01/15 03:51:45;;;;;;;;;;;;;;;4.89;67.91;99698.13;4462128;32;34674;-68
2023/01/15 03:54:15;;;;;;;;;;;;;;;4.81;67.28;99695.84;4464644;32;34300;-64
2023/01/15 03:56:54;;;;;;;;;;;;;;;5.23;65.91;99694.56;4466637;32;34821;-63
2023/01/15 03:59:22;;;;;;;;;;;;;;;5.04;66.39;99691.16;4456366;32;33107;-64
2023/01/15 04:01:50;;;;;;;;;;;;;;;5.07;66.79;99689.22;4475321;32;34380;-63
2023/01/15 04:04:20;;;;;;;;;;;;;;;5.91;64.32;99683.75;4460439;32;34089;-63
2023/01/15 04:06:47;;;;;;;;;;;;;;;5.65;65.12;99685.19;4451279;32;33152;-63
2023/01/15 04:09:14;;;;;;;;;;;;;;;6.16;63.29;99685.00;4475472;32;33239;-63
2023/01/15 04:11:42;;;;;;;;;;;;;;;5.49;63.94;99693.16;4478795;32;35454;-62
2023/01/15 04:14:11;;;;;;;;;;;;;;;6.13;62.64;99687.84;4471686;32;33993;-66
2023/01/15 04:16:39;;;;;;;;;;;;;;;5.96;63.06;99689.66;4453280;32;34562;-64
2023/01/15 04:19:07;;;;;;;;;;;;;;;6.09;62.42;99689.81;4467027;32;34353;-65
2023/01/15 04:21:34;;;;;;;;;;;;;;;5.93;62.88;99686.31;4482128;32;33843;-66
2023/01/15 04:24:01;;;;;;;;;;;;;;;5.78;63.70;99686.22;4479007;31;35459;-64
2023/01/15 04:26:29;;;;;;;;;;;;;;;5.52;64.89;99679.72;4479660;32;34184;-64
2023/01/15 04:28:56;;;;;;;;;;;;;;;6.09;63.43;99681.84;4470890;31;31489;-64
2023/01/15 04:31:23;;;;;;;;;;;;;;;5.03;67.44;99682.34;4479611;32;35576;-65
2023/01/15 04:33:51;;;;;;;;;;;;;;;4.61;68.34;99677.47;4471129;32;34425;-65
2023/01/15 04:36:18;;;;;;;;;;;;;;;5.54;66.27;99669.84;4474222;31;34313;-64
2023/01/15 04:38:45;;;;;;;;;;;;;;;6.05;63.58;99665.22;4475098;32;34328;-64
2023/01/15 04:44:07;;;;;;;;;;;;;;;5.82;64.15;99665.66;4477021;32;35231;-64
2023/01/15 04:46:44;;;;;;;;;;;;;;;4.27;69.18;99681.84;4470683;32;34109;-64
2023/01/15 04:49:12;;;;;;;;;;;;;;;4.98;67.81;99680.87;4472519;32;33338;-66
2023/01/15 04:51:40;;;;;;;;;;;;;;;6.07;63.92;99683.75;4474114;31;34278;-64
2023/01/15 04:54:08;;;;;;;;;;;;;;;5.92;63.77;99666.00;4467265;32;33913;-65
2023/01/15 04:56:39;;;;;;;;;;;;;;;6.23;62.57;99665.13;4466715;32;34207;-64
2023/01/15 04:59:06;;;;;;;;;;;;;;;4.49;68.22;99660.41;4476489;32;33631;-64
2023/01/15 05:01:34;;;;;;;;;;;;;;;4.67;69.28;99674.53;4469564;32;34125;-64
2023/01/15 05:04:01;;;;;;;;;;;;;;;5.31;67.10;99657.00;4477475;32;34974;-64
2023/01/15 05:06:30;;;;;;;;;;;;;;;5.75;64.07;99657.19;4483004;32;34331;-65
2023/01/15 05:08:57;;;;;;;;;;;;;;;6.10;63.58;99659.66;4477427;32;33233;-66
2023/01/15 05:11:25;;;;;;;;;;;;;;;5.28;66.22;99660.66;4472680;32;34377;-64
2023/01/15 05:13:53;;;;;;;;;;;;;;;4.94;66.47;99652.78;4478379;32;35517;-64
2023/01/15 05:16:24;;;;;;;;;;;;;;;4.23;69.19;99652.94;4475205;32;32799;-66
2023/01/15 05:18:52;;;;;;;;;;;;;;;3.77;71.80;99653.41;4476095;31;33422;-64
2023/01/15 05:21:20;;;;;;;;;;;;;;;4.84;68.58;99650.63;4480465;32;33887;-64
2023/01/15 05:23:48;;;;;;;;;;;;;;;3.63;72.35;99645.28;4476143;32;34215;-64
2023/01/15 05:26:16;;;;;;;;;;;;;;;5.04;67.50;99640.75;4473906;32;34200;-69
2023/01/15 05:28:43;;;;;;;;;;;;;;;5.29;66.98;99632.31;4469516;32;32822;-65
2023/01/15 05:31:12;;;;;;;;;;;;;;;4.84;68.44;99634.72;4472554;32;34122;-64
2023/01/15 05:33:39;;;;;;;;;;;;;;;3.98;71.28;99632.97;4479253;32;33994;-64
2023/01/15 05:36:08;;;;;;;;;;;;;;;4.58;70.61;99621.97;4472176;32;34942;-64
2023/01/15 05:38:35;;;;;;;;;;;;;;;3.56;73.02;99620.00;4464504;32;33242;-64
2023/01/15 05:41:47;;;;;;;;;;;;;;;3.63;73.24;99616.16;4477361;32;34876;-67
2023/01/15 05:43:54;;;;;;;;;;;;;;;4.22;71.51;99614.97;4478192;32;34406;-64
2023/01/15 05:46:21;;;;;;;;;;;;;;;4.26;71.32;99611.22;4473274;32;34424;-64
2023/01/15 05:48:49;;;;;;;;;;;;;;;3.09;76.53;99610.75;4474813;32;33205;-65
2023/01/15 05:51:16;;;;;;;;;;;;;;;3.51;75.38;99604.37;4476907;32;33823;-68
2023/01/15 05:53:43;;;;;;;;;;;;;;;3.95;73.28;99602.19;4467834;32;34389;-64
2023/01/15 05:56:11;;;;;;;;;;;;;;;4.83;70.30;99595.03;4467928;31;34136;-63
2023/01/15 05:58:38;;;;;;;;;;;;;;;3.74;73.81;99595.31;4469653;31;32093;-64
2023/01/15 06:01:09;;;;;;;;;;;;;;;3.84;73.99;99608.94;4468365;32;33781;-64
2023/01/15 06:03:36;;;;;;;;;;;;;;;3.16;76.98;99592.81;4471414;31;34046;-64
2023/01/15 06:06:03;;;;;;;;;;;;;;;2.91;77.74;99595.72;4471108;32;32392;-64
2023/01/15 06:08:31;;;;;;;;;;;;;;;3.29;77.74;99598.38;4473196;32;33490;-66
2023/01/15 06:10:58;;;;;;;;;;;;;;;3.79;75.16;99592.41;4476296;32;33949;-66
2023/01/15 06:13:25;;;;;;;;;;;;;;;3.79;74.93;99595.97;4474743;32;34081;-65
2023/01/15 06:15:53;;;;;;;;;;;;;;;3.95;75.07;99594.25;4469211;32;34251;-68
2023/01/15 06:18:22;;;;;;;;;;;;;;;4.68;71.95;99580.78;4474289;32;33343;-65
2023/01/15 06:20:49;;;;;;;;;;;;;;;3.28;76.89;99589.59;4478726;32;34423;-65
2023/01/15 06:23:17;;;;;;;;;;;;;;;3.70;75.99;99596.41;4471340;32;34262;-65
2023/01/15 06:25:44;;;;;;;;;;;;;;;3.81;75.25;99594.06;4473757;32;35001;-65
2023/01/15 06:28:12;;;;;;;;;;;;;;;4.76;72.87;99585.69;4477375;32;33447;-66
2023/01/15 06:30:39;;;;;;;;;;;;;;;5.32;69.81;99577.28;4473601;32;34312;-64
2023/01/15 06:33:06;;;;;;;;;;;;;;;5.52;69.34;99588.56;4475928;32;34335;-65
2023/01/15 06:35:34;;;;;;;;;;;;;;;4.74;72.44;99593.72;4472892;32;34487;-70
2023/01/15 06:38:01;;;;;;;;;;;;;;;5.01;70.80;99594.03;4465955;32;33380;-65
2023/01/15 06:40:28;;;;;;;;;;;;;;;5.58;69.35;99590.88;4471552;31;34121;-65
2023/01/15 06:48:31;;;;;;;;;;;;;;;4.57;74.14;99589.31;4470124;32;34149;-65
2023/01/15 06:50:58;;;;;;;;;;;;;;;4.41;74.11;99594.56;4455347;32;34827;-64
2023/01/15 06:53:25;;;;;;;;;;;;;;;5.03;72.17;99588.63;4471998;32;34763;-65
2023/01/15 06:55:53;;;;;;;;;;;;;;;4.77;72.35;99585.59;4472364;32;34141;-65
2023/01/15 06:58:21;;;;;;;;;;;;;;;3.60;78.05;99592.50;4474302;32;34043;-67
2023/01/15 07:00:54;;;;;;;;;;;;;;;4.49;74.92;99572.94;4476637;32;33876;-64
2023/01/15 07:03:22;;;;;;;;;;;;;;;4.20;76.79;99574.44;4475299;31;34272;-65
2023/01/15 07:05:49;;;;;;;;;;;;;;;5.65;70.62;99563.06;4479965;32;34027;-65
2023/01/15 07:08:16;;;;;;;;;;;;;;;4.04;76.13;99569.06;4474844;32;33287;-65
2023/01/15 07:10:44;;;;;;;;;;;;;;;5.07;73.52;99572.50;4472397;32;34026;-65
2023/01/15 07:13:11;;;;;;;;;;;;;;;4.53;74.89;99568.38;4471902;31;35378;-65
2023/01/15 07:15:39;;;;;;;;;;;;;;;5.66;71.31;99569.22;4477924;32;34522;-66
2023/01/15 07:18:07;;;;;;;;;;;;;;;5.09;71.88;99580.34;4474624;32;34060;-65
2023/01/15 07:20:34;;;;;;;;;;;;;;;5.82;69.54;99581.53;4476102;32;32804;-66
2023/01/15 07:23:01;;;;;;;;;;;;;;;4.96;73.34;99581.97;4470155;32;34199;-67
2023/01/15 07:25:28;;;;;;;;;;;;;;;5.70;71.70;99584.03;4471353;32;33308;-66
2023/01/15 07:27:56;;;;;;;;;;;;;;;5.65;70.48;99576.34;4465113;32;33777;-66
2023/01/15 07:30:23;;;;;;;;;;;;;;;5.94;70.16;99572.03;4476130;32;35161;-65
2023/01/15 07:32:50;;;;;;;;;;;;;;;5.89;70.06;99567.88;4468197;32;34251;-66
2023/01/15 07:35:17;;;;;;;;;;;;;;;6.11;69.41;99563.06;4476534;31;34140;-65
2023/01/15 07:37:49;;;;;;;;;;;;;;;5.49;71.53;99568.38;4474692;32;33361;-65
2023/01/15 07:40:17;;;;;;;;;;;;;;;5.84;69.47;99566.34;4479615;32;34099;-65
2023/01/15 07:51:01;;;;;;;;;;;;;;;5.76;71.67;99552.66;4478814;31;34184;-65
2023/01/15 07:53:29;;;;;;;;;;;;;;;4.76;75.22;99564.47;4475735;32;34296;-65
2023/01/15 07:55:56;;;;;;;;;;;;;;;5.24;73.76;99566.25;4475179;32;34291;-65
2023/01/15 07:58:23;;;;;;;;;;;;;;;5.12;75.01;99553.66;4472584;32;32942;-67
2023/01/15 08:00:51;;;;;;;;;;;;;;;5.23;74.37;99555.69;4473472;32;35263;-66
2023/01/15 08:03:19;;;;;;;;;;;;;;;4.10;78.45;99557.31;4474013;32;34600;-65
2023/01/15 08:05:46;;;;;;;;;;;;;;;4.77;77.09;99543.16;4467733;32;34036;-65
2023/01/15 08:08:16;;;;;;;;;;;;;;;4.65;77.00;99550.00;4474531;32;33059;-66
2023/01/15 08:16:16;;;;;;;;;;;;;;;4.14;79.21;99561.53;4474323;32;35818;-65
2023/01/15 08:18:45;;;;;;;;;;;;;;;4.20;79.52;99545.31;4470207;31;35323;-67
2023/01/15 08:21:15;;;;;;;;;;;;;;;4.33;78.91;99549.03;4467051;32;32726;-66
2023/01/15 08:23:45;;;;;;;;;;;;;;;4.89;77.50;99554.91;4479154;31;35551;-65
2023/01/15 08:26:12;;;;;;;;;;;;;;;4.90;76.45;99546.88;4480176;32;35543;-66
2023/01/15 08:28:39;;;;;;;;;;;;;;;4.48;78.52;99555.34;4472161;32;33246;-65
2023/01/15 08:31:07;;;;;;;;;;;;;;;4.87;76.74;99544.37;4467551;32;34058;-65
2023/01/15 08:33:34;;;;;;;;;;;;;;;4.63;78.31;99545.72;4475758;32;35395;-66
2023/01/15 08:36:01;;;;;;;;;;;;;;;4.18;80.43;99563.09;4475778;32;34331;-66
2023/01/15 08:38:29;;;;;;;;;;;;;;;4.07;80.42;99558.31;4468812;32;32884;-67
2023/01/15 08:40:59;;;;;;;;;;;;;;;5.41;76.50;99554.66;4473482;31;34094;-67
2023/01/15 08:43:27;;;;;;;;;;;;;;;5.16;76.58;99546.38;4474362;32;33261;-65
2023/01/15 08:45:56;;;;;;;;;;;;;;;5.71;74.81;99546.75;4469246;32;34124;-65
2023/01/15 08:48:24;;;;;;;;;;;;;;;5.73;74.35;99541.34;4479633;32;33486;-64
2023/01/15 08:50:51;;;;;;;;;;;;;;;5.55;75.61;99545.91;4474707;32;35157;-66
2023/01/15 08:53:19;;;;;;;;;;;;;;;6.06;72.74;99531.41;4473206;32;34241;-65
2023/01/15 08:55:47;;;;;;;;;;;;;;;5.35;75.00;99544.41;4456190;32;34185;-65
2023/01/15 08:58:14;;;;;;;;;;;;;;;5.13;76.18;99548.25;4477552;32;34345;-66
2023/01/15 09:01:05;;;;;;;;;;;;;;;5.74;74.43;99537.75;4454726;32;33625;-65
2023/01/15 09:03:33;;;;;;;;;;;;;;;7.05;69.68;99536.87;4473813;32;32079;-65
2023/01/15 09:06:00;;;;;;;;;;;;;;;6.10;71.02;99537.44;4468742;32;35382;-68
2023/01/15 09:08:28;;;;;;;;;;;;;;;5.74;73.27;99535.94;4472951;32;33320;-65
2023/01/15 09:10:56;;;;;;;;;;;;;;;4.88;75.89;99535.50;4469730;32;35143;-64
2023/01/15 09:13:23;;;;;;;;;;;;;;;5.20;74.66;99516.94;4467801;32;34330;-64
2023/01/15 09:15:51;;;;;;;;;;;;;;;5.46;75.53;99515.47;4470322;32;34417;-64
2023/01/15 09:18:19;;;;;;;;;;;;;;;5.99;71.95;99511.50;4479259;32;33283;-64
2023/01/15 09:20:47;;;;;;;;;;;;;;;5.89;72.35;99507.63;4477106;32;35132;-66
2023/01/15 09:23:14;;;;;;;;;;;;;;;5.81;72.92;99505.44;4469389;31;34471;-64
2023/01/15 09:25:50;;;;;;;;;;;;;;;5.44;74.39;99488.13;4468329;32;33809;-66
2023/01/15 09:28:19;;;;;;;;;;;;;;;5.81;73.67;99494.81;4477257;32;34109;-66
2023/01/15 09:30:46;;;;;;;;;;;;;;;5.66;73.15;99489.56;4474025;32;33953;-64
2023/01/15 09:33:14;;;;;;;;;;;;;;;5.47;74.41;99469.38;4479175;32;34042;-64
2023/01/15 09:35:41;;;;;;;;;;;;;;;6.07;72.48;99477.34;4475588;32;34029;-64
2023/01/15 09:38:10;;;;;;;;;;;;;;;5.54;73.81;99475.19;4485103;32;34374;-65
2023/01/15 09:40:48;;;;;;;;;;;;;;;5.41;74.46;99468.88;4476389;32;32864;-65
2023/01/15 09:43:31;;;;;;;;;;;;;;;4.79;77.92;99467.06;4465562;32;34034;-64
2023/01/15 09:46:04;;;;;;;;;;;;;;;5.37;75.47;99469.06;4479150;32;33571;-66
2023/01/15 09:48:52;;;;;;;;;;;;;;;5.46;75.78;99466.84;4470586;32;33350;-65
2023/01/15 09:51:25;;;;;;;;;;;;;;;6.06;73.61;99449.06;4479849;32;35332;-64
2023/01/15 09:53:58;;;;;;;;;;;;;;;5.26;75.36;99458.19;4471051;32;35647;-64
2023/01/15 09:56:26;;;;;;;;;;;;;;;5.47;75.09;99450.81;4455155;32;34132;-64
2023/01/15 09:58:54;;;;;;;;;;;;;;;5.95;73.28;99448.03;4455401;32;33586;-65
2023/01/15 10:01:26;;;;;;;;;;;;;;;5.89;73.37;99435.91;4467194;32;33844;-66
2023/01/15 10:03:57;;;;;;;;;;;;;;;6.61;70.87;99423.50;4465734;32;33916;-65
2023/01/15 10:06:25;;;;;;;;;;;;;;;6.25;72.60;99424.88;4470060;32;32832;-65
2023/01/15 10:09:03;;;;;;;;;;;;;;;6.69;71.32;99431.84;4461325;32;32168;-65
2023/01/15 10:14:46;;;;;;;;;;;;;;;7.35;68.61;99413.38;4475650;32;34334;-66
2023/01/15 10:17:17;;;;;;;;;;;;;;;7.04;68.08;99406.59;4465781;32;35220;-64
2023/01/15 10:19:44;;;;;;;;;;;;;;;7.69;66.62;99385.34;4467953;32;34399;-65
2023/01/15 10:22:15;;;;;;;;;;;;;;;7.14;68.33;99383.75;4474594;32;34905;-65
2023/01/15 10:24:44;;;;;;;;;;;;;;;7.65;66.90;99383.84;4467160;32;34430;-65
2023/01/15 10:27:17;;;;;;;;;;;;;;;7.86;65.83;99385.00;4442335;32;34040;-64
2023/01/15 10:29:45;;;;;;;;;;;;;;;7.51;66.48;99382.09;4463627;32;33281;-67
2023/01/15 10:32:12;;;;;;;;;;;;;;;7.83;65.59;99374.59;4461674;32;35341;-65
2023/01/15 10:34:58;;;;;;;;;;;;;;;8.50;62.88;99368.97;4481104;32;34506;-65
2023/01/15 10:37:44;;;;;;;;;;;;;;;7.16;65.23;99364.06;4472822;32;34502;-67
2023/01/15 10:40:30;;;;;;;;;;;;;;;6.60;69.20;99359.78;4478197;31;33257;-65
2023/01/15 10:43:07;;;;;;;;;;;;;;;7.01;68.50;99357.09;4467972;32;35280;-66
2023/01/15 10:45:45;;;;;;;;;;;;;;;7.86;65.29;99333.53;4473826;32;35516;-65
2023/01/15 10:48:28;;;;;;;;;;;;;;;7.91;66.06;99334.94;4468548;32;32777;-65
2023/01/15 10:50:56;;;;;;;;;;;;;;;7.72;65.94;99323.84;4453972;32;34567;-66
2023/01/15 10:53:28;;;;;;;;;;;;;;;8.68;64.33;99333.94;4465511;32;34196;-66
2023/01/15 10:56:00;;;;;;;;;;;;;;;8.85;62.25;99322.87;4477048;32;32928;-65
2023/01/15 10:58:48;;;;;;;;;;;;;;;9.21;61.73;99315.72;4471497;32;32934;-66
2023/01/15 11:01:18;;;;;;;;;;;;;;;7.91;64.41;99313.63;4467460;32;33375;-66
2023/01/15 11:03:46;;;;;;;;;;;;;;;8.05;64.12;99303.78;4472311;32;33874;-66
2023/01/15 11:06:14;;;;;;;;;;;;;;;7.46;66.03;99302.53;4453593;32;34559;-66
2023/01/15 11:08:43;;;;;;;;;;;;;;;7.78;65.62;99301.28;4471156;32;34486;-65
2023/01/15 11:20:16;;;;;;;;;;;;;;;8.08;64.33;99276.91;4459530;31;33794;-66
2023/01/15 11:22:44;;;;;;;;;;;;;;;8.42;62.32;99277.19;4467556;31;34318;-67
2023/01/15 11:25:11;;;;;;;;;;;;;;;9.15;61.35;99268.13;4475276;32;35669;-67
2023/01/15 11:27:38;;;;;;;;;;;;;;;7.93;63.75;99271.72;4470716;31;32636;-67
2023/01/15 11:30:06;;;;;;;;;;;;;;;7.72;63.86;99264.41;4462147;32;33914;-67
2023/01/15 11:32:37;;;;;;;;;;;;;;;8.50;62.57;99259.63;4469112;32;33197;-67
2023/01/15 11:35:07;;;;;;;;;;;;;;;9.09;60.93;99253.44;4476573;32;33340;-66
2023/01/15 11:37:34;;;;;;;;;;;;;;;8.48;60.79;99250.06;4467349;31;34855;-67
2023/01/15 11:40:06;;;;;;;;;;;;;;;8.51;62.00;99261.34;4473850;32;34660;-66
2023/01/15 11:51:18;;;;;;;;;;;;;;;8.51;62.79;99210.66;4393866;32;34820;-65
2023/01/15 11:53:49;;;;;;;;;;;;;;;7.99;63.88;99202.94;4430499;32;33232;-66
2023/01/15 11:56:17;;;;;;;;;;;;;;;8.06;64.30;99185.56;4469895;31;33852;-66
2023/01/15 11:58:46;;;;;;;;;;;;;;;8.48;62.76;99194.06;4477719;32;34586;-67
2023/01/15 12:01:19;;;;;;;;;;;;;;;8.78;61.25;99189.03;4463966;32;34851;-66
2023/01/15 12:03:47;;;;;;;;;;;;;;;8.00;63.84;99176.19;4457848;32;33330;-67
2023/01/15 12:06:14;;;;;;;;;;;;;;;7.53;65.62;99164.50;4477705;32;34169;-66
2023/01/15 12:08:45;;;;;;;;;;;;;;;7.77;64.75;99169.00;4469564;32;34302;-67
2023/01/15 12:11:21;;;;;;;;;;;;;;;8.81;61.65;99161.28;4467490;32;33909;-67
2023/01/15 12:14:12;;;;;;;;;;;;;;;8.29;62.52;99173.19;4471468;32;34003;-66
2023/01/15 12:16:57;;;;;;;;;;;;;;;8.33;62.26;99172.84;4474620;32;34132;-67
2023/01/15 12:19:33;;;;;;;;;;;;;;;7.64;64.98;99187.69;4473858;32;34541;-67
2023/01/15 12:22:07;;;;;;;;;;;;;;;8.05;63.87;99166.03;4477251;32;34222;-67
2023/01/15 12:24:47;;;;;;;;;;;;;;;8.17;63.18;99162.47;4476926;32;33517;-67
2023/01/15 12:27:24;;;;;;;;;;;;;;;8.42;63.26;99165.16;4470179;32;32941;-67
2023/01/15 12:29:51;;;;;;;;;;;;;;;8.62;62.70;99168.00;4459208;32;33069;-65
2023/01/15 12:32:30;;;;;;;;;;;;;;;8.54;61.96;99165.09;4474611;32;34190;-67
2023/01/15 12:34:58;;;;;;;;;;;;;;;9.19;60.79;99165.47;4462319;32;33726;-67
2023/01/15 12:37:27;;;;;;;;;;;;;;;8.70;61.71;99162.13;4458546;32;34261;-65
2023/01/15 12:39:56;;;;;;;;;;;;;;;9.24;60.34;99155.28;4469555;32;34903;-67
2023/01/15 12:45:20;;;;;;;;;;;;;;;9.00;60.07;99153.56;4465241;32;33671;-66
2023/01/15 12:47:49;;;;;;;;;;;;;;;8.85;60.64;99152.06;4473835;32;35076;-67
2023/01/15 12:50:35;;;;;;;;;;;;;;;9.40;59.56;99146.91;4459587;32;35088;-67
2023/01/15 12:53:09;;;;;;;;;;;;;;;8.58;61.10;99153.22;4475362;32;34146;-66
2023/01/15 12:55:38;;;;;;;;;;;;;;;8.79;60.69;99136.53;4471849;32;34250;-67
2023/01/15 12:58:10;;;;;;;;;;;;;;;9.41;58.80;99141.44;4455774;32;34185;-66
2023/01/15 13:00:39;;;;;;;;;;;;;;;8.56;60.72;99136.47;4464094;32;34254;-66
2023/01/15 13:03:16;;;;;;;;;;;;;;;8.27;62.17;99137.78;4474435;32;35389;-68
2023/01/15 13:05:47;;;;;;;;;;;;;;;9.57;58.82;99125.88;4467918;32;33483;-67
2023/01/15 13:08:22;;;;;;;;;;;;;;;9.10;59.66;99132.34;4470110;32;35322;-67
2023/01/15 13:10:50;;;;;;;;;;;;;;;9.85;57.81;99128.97;4470669;32;35876;-66
2023/01/15 13:13:19;;;;;;;;;;;;;;;9.02;59.92;99142.75;4482416;32;33220;-67
2023/01/15 13:16:07;;;;;;;;;;;;;;;9.26;59.38;99142.66;4478516;32;33298;-67
2023/01/15 13:18:34;;;;;;;;;;;;;;;8.96;60.77;99136.09;4450519;31;33762;-66
2023/01/15 13:21:04;;;;;;;;;;;;;;;8.98;60.84;99123.44;4476109;32;34547;-65
2023/01/15 13:23:35;;;;;;;;;;;;;;;8.96;60.88;99125.41;4470465;32;33852;-66
2023/01/15 13:26:10;;;;;;;;;;;;;;;9.19;59.04;99120.09;4455991;32;34013;-67
2023/01/15 13:28:37;;;;;;;;;;;;;;;8.57;61.75;99111.53;4462657;32;35258;-66
2023/01/15 13:31:10;;;;;;;;;;;;;;;8.36;62.36;99100.63;4479606;32;32744;-68
2023/01/15 13:33:42;;;;;;;;;;;;;;;9.78;58.68;99095.72;4482778;32;35394;-65
2023/01/15 13:36:09;;;;;;;;;;;;;;;8.73;60.60;99108.53;4473316;32;34156;-66
2023/01/15 13:38:38;;;;;;;;;;;;;;;8.91;60.82;99105.38;4480764;32;34302;-65
2023/01/15 13:41:05;;;;;;;;;;;;;;;9.15;59.93;99103.47;4470519;32;34447;-66
2023/01/15 13:43:34;;;;;;;;;;;;;;;8.58;61.09;99102.53;4469538;32;35258;-65
2023/01/15 13:46:02;;;;;;;;;;;;;;;9.50;58.34;99103.31;4474892;32;34185;-65
2023/01/15 13:48:33;;;;;;;;;;;;;;;8.94;59.25;99100.66;4466626;31;34126;-65
2023/01/15 13:51:03;;;;;;;;;;;;;;;8.65;60.22;99094.91;4458585;32;34195;-66
2023/01/15 13:53:37;;;;;;;;;;;;;;;8.17;60.56;99089.66;4471796;32;34323;-65
2023/01/15 13:56:06;;;;;;;;;;;;;;;9.07;58.60;99080.03;4458232;32;33467;-66
2023/01/15 13:58:37;;;;;;;;;;;;;;;9.58;57.34;99078.66;4475979;32;34153;-67
2023/01/15 14:01:05;;;;;;;;;;;;;;;9.04;58.75;99085.59;4474459;32;34074;-64
2023/01/15 14:03:36;;;;;;;;;;;;;;;8.99;58.98;99082.47;4471468;32;33374;-65
2023/01/15 14:06:05;;;;;;;;;;;;;;;8.90;59.00;99091.19;4469926;32;33533;-67